Time;durP1;ratioP1;P1;durP2;ratioP2;P2;SDS_P1;SDS_P2;PMS_P1;PMS_P2;Temp;Humidity;BMP_temperature;BMP_pressure;BME280_temperature;BME280_humidity;BME280_pressure;Samples;Min_cycle;Max_cycle;Signal;HPM_P1;HPM_P2
2023/09/11 00:25:28;;;;;;;12.50;8.40;;;;;;;19.33;73.65;99123.47;231358;224;697606;-65
2023/09/11 00:30:37;;;;;;;13.50;7.70;;;;;;;19.23;73.60;99118.66;232910;216;136765;-63
2023/09/11 00:35:45;;;;;;;11.40;7.80;;;;;;;19.10;73.66;99116.23;232838;216;143768;-64
2023/09/11 00:40:49;;;;;;;15.90;8.40;;;;;;;19.00;74.11;99115.83;232805;215;140571;-64
2023/09/11 00:45:56;;;;;;;15.90;7.30;;;;;;;18.92;74.13;99106.20;232749;215;137280;-63
2023/09/11 00:51:01;;;;;;;13.60;7.90;;;;;;;18.86;74.30;99110.48;232827;215;144698;-61
2023/09/11 00:56:07;;;;;;;12.90;7.30;;;;;;;18.82;74.43;99106.16;232686;215;140124;-62
2023/09/11 01:01:13;;;;;;;12.70;7.80;;;;;;;18.74;74.59;99105.36;232896;215;137372;-61
2023/09/11 01:06:17;;;;;;;13.30;7.60;;;;;;;18.64;74.95;99100.66;232767;215;145106;-59
2023/09/11 01:11:22;;;;;;;11.60;7.70;;;;;;;18.56;75.03;99101.27;232828;214;138867;-61
2023/09/11 01:16:50;;;;;;;11.60;6.70;;;;;;;18.48;74.93;99101.17;232835;216;136817;-63
2023/09/11 01:21:55;;;;;;;12.40;6.80;;;;;;;18.39;75.22;99099.26;232831;216;147323;-61
2023/09/11 01:27:45;;;;;;;17.50;7.60;;;;;;;18.36;75.20;99095.60;232833;216;138713;-61
2023/09/11 01:32:49;;;;;;;12.80;7.70;;;;;;;18.33;75.25;99093.50;232766;215;137847;-61
2023/09/11 01:37:55;;;;;;;13.70;7.90;;;;;;;18.29;75.26;99090.52;232905;216;145565;-61
2023/09/11 01:43:06;;;;;;;12.90;7.50;;;;;;;18.24;75.24;99084.89;233070;216;142598;-59
2023/09/11 01:48:12;;;;;;;12.90;7.90;;;;;;;18.15;75.31;99086.39;232712;215;138749;-63
2023/09/11 01:53:17;;;;;;;10.00;7.00;;;;;;;18.08;75.60;99081.21;232696;215;145668;-64
2023/09/11 01:58:21;;;;;;;13.40;6.90;;;;;;;18.03;75.89;99079.66;232679;215;138675;-59
2023/09/11 02:03:25;;;;;;;14.70;7.70;;;;;;;18.02;76.07;99077.20;232720;215;139088;-62
2023/09/11 02:08:29;;;;;;;11.90;7.10;;;;;;;18.01;75.98;99077.89;232786;215;146108;-62
2023/09/11 02:13:35;;;;;;;12.50;7.70;;;;;;;17.99;76.22;99081.13;232804;214;139330;-63
2023/09/11 02:18:39;;;;;;;14.20;7.90;;;;;;;17.94;76.13;99077.38;232710;214;137545;-61
2023/09/11 02:23:44;;;;;;;;;;;;;;;17.88;76.14;99074.16;232644;215;147473;-62
2023/09/11 02:28:48;;;;;;;11.20;7.70;;;;;;;17.81;76.53;99077.88;232799;215;139393;-63
2023/09/11 02:33:52;;;;;;;10.60;6.60;;;;;;;17.76;76.51;99073.52;232675;214;137361;-60
2023/09/11 02:42:27;;;;;;;11.90;7.60;;;;;;;17.71;76.82;99071.94;231360;224;723490;-64
2023/09/11 02:47:33;;;;;;;14.70;7.50;;;;;;;17.66;76.83;99079.02;232421;218;137906;-63
2023/09/11 02:55:27;;;;;;;14.70;8.10;;;;;;;17.64;76.63;99074.55;231310;224;723673;-63
2023/09/11 03:00:36;;;;;;;10.60;6.10;;;;;;;17.58;76.76;99075.42;232261;219;137199;-63
2023/09/11 03:05:41;;;;;;;11.60;6.70;;;;;;;17.57;76.76;99072.71;232584;214;144473;-63
2023/09/11 03:10:48;;;;;;;21.70;9.10;;;;;;;17.55;76.77;99074.99;232723;214;138973;-62
2023/09/11 03:15:53;;;;;;;16.40;8.10;;;;;;;17.56;76.80;99066.16;232729;214;137582;-62
2023/09/11 03:20:58;;;;;;;11.70;7.70;;;;;;;17.56;76.76;99068.33;232649;214;143862;-65
2023/09/11 03:26:13;;;;;;;11.70;7.90;;;;;;;17.53;76.75;99070.69;232773;214;138591;-65
2023/09/11 03:31:22;;;;;;;13.60;7.40;;;;;;;17.46;76.74;99070.41;232723;214;137481;-65
2023/09/11 03:36:34;;;;;;;17.90;7.30;;;;;;;17.43;77.05;99068.02;232711;214;144000;-66
2023/09/11 03:41:40;;;;;;;14.20;7.90;;;;;;;17.43;77.22;99067.48;232771;214;138873;-63
2023/09/11 03:46:45;;;;;;;17.60;7.50;;;;;;;17.44;77.09;99066.34;232763;214;136718;-60
2023/09/11 03:51:50;;;;;;;17.80;8.20;;;;;;;17.43;76.80;99069.65;232764;214;145449;-62
2023/09/11 03:56:58;;;;;;;17.70;8.40;;;;;;;17.42;77.09;99070.64;232621;214;138995;-62
2023/09/11 04:02:03;;;;;;;15.20;7.70;;;;;;;17.38;77.05;99069.04;232783;214;137145;-67
2023/09/11 04:07:07;;;;;;;16.10;7.10;;;;;;;17.33;77.37;99071.79;232821;215;145739;-64
2023/09/11 04:12:14;;;;;;;18.10;7.70;;;;;;;17.37;77.53;99066.13;232683;214;138924;-64
2023/09/11 04:17:18;;;;;;;17.70;8.00;;;;;;;17.39;77.38;99063.20;232717;214;137924;-65
2023/09/11 04:22:25;;;;;;;19.90;9.00;;;;;;;17.40;77.62;99057.04;232668;214;146410;-65
2023/09/11 04:27:32;;;;;;;22.30;9.60;;;;;;;17.39;77.63;99053.46;232625;215;139284;-62
2023/09/11 04:32:37;;;;;;;14.20;7.60;;;;;;;17.36;77.83;99053.07;232715;214;139390;-62
2023/09/11 04:37:42;;;;;;;15.10;8.20;;;;;;;17.36;77.97;99055.00;232652;214;146359;-67
2023/09/11 04:42:47;;;;;;;15.20;8.50;;;;;;;17.49;79.14;99051.52;232690;214;139150;-67
2023/09/11 04:47:51;;;;;;;16.90;8.50;;;;;;;17.62;79.49;99045.30;232633;214;137085;-67
2023/09/11 04:52:57;;;;;;;20.00;8.20;;;;;;;17.74;79.54;99045.69;232654;214;145621;-66
2023/09/11 04:58:02;;;;;;;16.90;8.80;;;;;;;17.80;78.99;99046.64;232626;214;150674;-61
2023/09/11 05:03:10;;;;;;;15.10;8.70;;;;;;;17.78;79.30;99042.51;232731;215;140655;-62
2023/09/11 05:08:17;;;;;;;12.00;7.40;;;;;;;17.86;79.69;99043.14;232854;215;147107;-63
2023/09/11 05:13:20;;;;;;;17.10;8.90;;;;;;;17.95;79.59;99042.52;232710;215;139072;-63
2023/09/11 05:18:25;;;;;;;15.00;9.60;;;;;;;18.03;79.69;99039.24;232789;215;138106;-61
2023/09/11 05:23:31;;;;;;;;;;;;;;;18.14;79.82;99043.44;232710;213;147165;-66
2023/09/11 05:28:36;;;;;;;59.40;45.70;;;;;;;18.23;79.56;99039.40;232804;214;138901;-62
2023/09/11 05:33:41;;;;;;;17.30;10.30;;;;;;;18.26;79.79;99038.20;232647;214;136920;-62
2023/09/11 05:38:47;;;;;;;81.60;63.70;;;;;;;18.29;79.82;99034.31;232743;214;146465;-58
2023/09/11 05:43:52;;;;;;;18.30;10.10;;;;;;;18.42;79.85;99039.54;232822;215;138672;-58
2023/09/11 05:48:55;;;;;;;14.50;10.00;;;;;;;18.54;79.59;99040.87;232641;214;136844;-60
2023/09/11 05:54:00;;;;;;;122.30;102.50;;;;;;;18.75;80.25;99038.55;232651;215;145805;-60
2023/09/11 05:59:06;;;;;;;70.20;58.00;;;;;;;19.03;79.10;99036.02;232681;214;140673;-60
2023/09/11 08:25:37;;;;;;;12.30;7.80;;;;;;;23.10;62.04;98992.63;231440;224;698680;-65
2023/09/11 08:30:43;;;;;;;12.30;7.00;;;;;;;23.25;60.95;98984.54;232256;219;138780;-63
2023/09/11 08:35:56;;;;;;;11.00;6.50;;;;;;;23.44;60.78;98982.21;232240;219;144451;-63
2023/09/11 08:41:00;;;;;;;;;;;;;;;23.58;59.76;98982.52;232813;216;138862;-64
2023/09/11 08:46:07;;;;;;;13.90;6.20;;;;;;;23.74;59.53;98981.80;232876;216;129694;-62
2023/09/11 08:51:22;;;;;;;8.70;6.30;;;;;;;23.91;58.85;98988.16;232967;216;143665;-63
2023/09/11 08:56:27;;;;;;;6.90;6.00;;;;;;;24.09;58.78;98988.50;232825;216;140551;-64
2023/09/11 09:01:33;;;;;;;10.50;6.70;;;;;;;24.28;58.06;98988.04;232896;216;137496;-64
2023/09/11 09:06:52;;;;;;;12.30;6.00;;;;;;;24.45;56.73;98990.73;232734;216;143838;-65
2023/09/11 09:11:59;;;;;;;7.40;5.60;;;;;;;24.59;56.21;98985.72;232739;216;138878;-62
2023/09/11 09:17:02;;;;;;;6.60;5.30;;;;;;;24.77;54.79;98985.52;232620;216;138398;-63
2023/09/11 09:22:09;;;;;;;9.30;6.00;;;;;;;24.93;54.28;98986.33;232756;216;147215;-63
2023/09/11 09:27:13;;;;;;;7.60;5.10;;;;;;;25.11;54.23;98975.37;232807;217;138663;-60
2023/09/11 09:32:18;;;;;;;6.80;5.50;;;;;;;25.28;53.41;98966.45;232802;217;137388;-61
2023/09/11 09:37:21;;;;;;;9.90;5.00;;;;;;;25.43;52.65;98965.44;232718;216;147491;-63
2023/09/11 09:42:37;;;;;;;7.00;4.60;;;;;;;25.55;51.96;98965.61;232663;217;139646;-62
2023/09/11 09:48:03;;;;;;;9.30;5.40;;;;;;;25.70;52.44;98954.80;232756;216;137110;-61
2023/09/11 09:53:22;;;;;;;9.20;5.30;;;;;;;25.94;51.92;98951.89;232778;216;146688;-64
2023/09/11 09:58:28;;;;;;;8.80;5.30;;;;;;;26.16;51.15;98945.08;232748;217;139002;-65
2023/09/11 10:03:52;;;;;;;9.10;5.50;;;;;;;26.36;50.40;98935.23;232989;216;137176;-63
2023/09/11 10:09:04;;;;;;;11.50;5.50;;;;;;;26.59;50.25;98930.21;233010;216;145618;-65
2023/09/11 10:14:11;;;;;;;7.50;4.80;;;;;;;26.84;49.83;98928.95;232825;216;139634;-65
2023/09/11 10:19:16;;;;;;;7.40;4.70;;;;;;;27.02;47.32;98921.80;232961;216;137288;-61
2023/09/11 10:24:22;;;;;;;9.50;5.40;;;;;;;27.17;46.17;98923.58;232853;216;146161;-64
2023/09/11 10:29:39;;;;;;;7.70;5.00;;;;;;;27.34;46.52;98920.48;232854;216;138597;-63
2023/09/11 10:34:45;;;;;;;8.00;5.50;;;;;;;27.55;45.39;98920.57;232883;216;137337;-63
2023/09/11 10:39:51;;;;;;;8.70;5.90;;;;;;;27.69;45.20;98921.56;232732;216;146590;-61
2023/09/11 10:44:56;;;;;;;6.80;5.60;;;;;;;27.84;45.13;98916.51;232875;216;138607;-64
2023/09/11 10:50:01;;;;;;;9.20;5.30;;;;;;;27.95;44.55;98909.15;232829;216;137611;-63
2023/09/11 10:55:09;;;;;;;8.30;5.40;;;;;;;28.09;43.88;98907.05;232776;216;145520;-64
2023/09/11 11:00:16;;;;;;;6.70;5.10;;;;;;;28.21;42.77;98904.46;232758;216;137926;-63
2023/09/11 11:05:21;;;;;;;7.00;5.70;;;;;;;28.37;43.01;98902.61;232871;216;137045;-63
2023/09/11 11:10:26;;;;;;;8.10;5.40;;;;;;;28.52;42.67;98898.60;232851;216;147181;-64
2023/09/11 11:15:30;;;;;;;7.60;5.40;;;;;;;28.65;43.14;98899.23;232909;216;139784;-64
2023/09/11 11:20:38;;;;;;;12.50;5.20;;;;;;;28.85;43.10;98898.69;232843;216;137882;-64
2023/09/11 11:25:50;;;;;;;6.80;5.10;;;;;;;28.93;41.46;98900.05;232788;216;148409;-63
2023/09/11 11:30:54;;;;;;;8.60;5.30;;;;;;;29.03;41.65;98889.58;232843;216;139786;-62
2023/09/11 11:36:05;;;;;;;9.10;5.00;;;;;;;29.21;41.82;98883.34;232871;216;136647;-63
2023/09/11 11:41:13;;;;;;;9.20;5.40;;;;;;;29.42;41.12;98880.64;232798;216;145741;-64
2023/09/11 11:46:25;;;;;;;6.80;5.30;;;;;;;29.55;39.81;98882.84;232834;216;139185;-63
2023/09/11 11:51:31;;;;;;;7.50;5.00;;;;;;;29.64;40.00;98871.62;233020;216;136752;-61
2023/09/11 11:56:36;;;;;;;9.00;5.40;;;;;;;29.77;39.49;98868.40;232781;216;146920;-65
2023/09/11 12:01:44;;;;;;;8.20;5.10;;;;;;;29.87;39.25;98867.09;232784;216;138846;-63
2023/09/11 12:06:49;;;;;;;8.60;5.00;;;;;;;30.01;39.03;98865.23;232856;216;136767;-63
2023/09/11 12:11:55;;;;;;;8.20;5.30;;;;;;;30.06;39.03;98858.22;232808;216;146316;-63
2023/09/11 12:17:00;;;;;;;10.60;6.30;;;;;;;30.15;38.91;98851.88;232811;216;139966;-57
2023/09/11 12:22:06;;;;;;;8.10;5.50;;;;;;;30.22;38.30;98856.15;232765;216;137292;-64
2023/09/11 12:27:09;;;;;;;11.30;7.00;;;;;;;30.27;38.25;98850.31;233018;216;145404;-62
2023/09/11 12:32:12;;;;;;;5.80;5.10;;;;;;;30.34;38.72;98844.24;232650;217;140479;-60
2023/09/11 12:37:17;;;;;;;;;;;;;;;30.42;37.98;98847.61;232821;216;137902;-60
2023/09/11 12:42:23;;;;;;;9.80;5.60;;;;;;;30.48;37.16;98843.50;232911;216;145730;-62
2023/09/11 12:47:28;;;;;;;8.80;5.30;;;;;;;30.59;37.00;98847.12;232772;216;138718;-61
2023/09/11 12:52:33;;;;;;;7.50;5.00;;;;;;;30.64;36.88;98841.07;232836;216;141248;-62
2023/09/11 12:57:40;;;;;;;9.40;5.80;;;;;;;30.80;37.08;98837.50;232966;216;146248;-62
2023/09/11 13:02:47;;;;;;;9.90;5.20;;;;;;;30.92;36.62;98835.40;232781;216;139979;-59
2023/09/11 13:07:52;;;;;;;7.20;5.20;;;;;;;30.96;36.45;98825.89;232856;216;139706;-62
2023/09/11 13:12:56;;;;;;;10.10;5.50;;;;;;;31.11;36.80;98820.22;232820;216;145858;-62
2023/09/11 13:18:04;;;;;;;7.70;6.00;;;;;;;31.27;36.23;98820.14;232808;216;139068;-61
2023/09/11 13:23:07;;;;;;;7.40;5.00;;;;;;;31.36;36.28;98821.40;232838;212;139680;-61
2023/09/11 13:28:10;;;;;;;10.80;5.80;;;;;;;31.43;35.71;98821.42;232818;216;147486;-62
2023/09/11 13:33:14;;;;;;;6.60;5.90;;;;;;;31.48;35.88;98817.81;232971;216;141398;-63
2023/09/11 13:38:19;;;;;;;8.50;5.90;;;;;;;31.58;35.81;98815.58;232793;216;137071;-61
2023/09/11 13:43:24;;;;;;;8.50;5.70;;;;;;;31.41;35.94;98811.45;232815;216;146174;-64
2023/09/11 13:48:30;;;;;;;10.20;7.00;;;;;;;31.25;36.16;98807.93;232903;216;138790;-60
2023/09/11 13:53:35;;;;;;;28.90;25.90;;;;;;;31.35;36.09;98803.33;232913;216;137889;-65
2023/09/11 13:58:40;;;;;;;10.50;6.50;;;;;;;31.26;35.96;98802.19;232895;216;146538;-63
2023/09/11 14:03:48;;;;;;;10.60;7.60;;;;;;;30.98;35.95;98797.36;233012;216;138785;-61
2023/09/11 14:08:53;;;;;;;11.00;6.40;;;;;;;30.68;37.19;98790.64;232883;216;137335;-60
2023/09/11 14:13:57;;;;;;;7.30;5.40;;;;;;;30.39;37.49;98790.98;232979;216;146537;-62
2023/09/11 14:19:06;;;;;;;12.30;6.40;;;;;;;30.13;37.50;98784.49;232965;216;141079;-61
2023/09/11 14:24:11;;;;;;;8.30;6.40;;;;;;;29.90;37.94;98780.05;232979;216;138194;-62
2023/09/11 14:29:17;;;;;;;8.40;6.20;;;;;;;29.72;38.19;98784.44;232946;216;145450;-62
2023/09/11 14:34:25;;;;;;;11.20;5.90;;;;;;;29.54;38.54;98783.36;232903;216;138912;-61
2023/09/11 14:39:29;;;;;;;8.40;5.70;;;;;;;29.39;38.68;98780.56;232989;216;140853;-60
2023/09/11 14:44:33;;;;;;;;;;;;;;;29.23;39.07;98778.33;232920;216;145625;-63
2023/09/11 14:49:38;;;;;;;6.90;5.60;;;;;;;29.09;39.28;98778.42;232972;216;139676;-61
2023/09/11 14:54:42;;;;;;;10.50;6.50;;;;;;;28.95;39.57;98765.58;232930;216;137533;-61
2023/09/11 14:59:59;;;;;;;58.30;52.40;;;;;;;28.83;39.81;98767.63;232679;214;146404;-64
2023/09/11 15:05:06;;;;;;;16.70;12.10;;;;;;;28.73;40.34;98765.20;232716;214;138819;-61
2023/09/11 15:10:10;;;;;;;8.00;6.30;;;;;;;28.64;40.56;98764.58;232756;214;138140;-63
2023/09/11 15:15:15;;;;;;;153.40;137.80;;;;;;;28.56;40.78;98757.05;232693;215;147157;-60
2023/09/11 15:20:21;;;;;;;12.30;10.80;;;;;;;28.49;41.09;98756.42;232647;214;138506;-62
2023/09/11 15:25:29;;;;;;;10.50;7.90;;;;;;;28.41;40.62;98757.76;232605;212;137864;-60
2023/09/11 15:30:37;;;;;;;8.30;7.50;;;;;;;28.34;41.17;98754.68;232685;214;145959;-60
2023/09/11 15:36:12;;;;;;;14.50;12.20;;;;;;;28.27;41.42;98754.89;232650;215;139014;-66
2023/09/11 15:41:17;;;;;;;77.50;68.80;;;;;;;28.23;41.63;98754.73;232644;214;138757;-60
2023/09/11 15:46:21;;;;;;;12.50;9.10;;;;;;;28.19;41.71;98753.65;232743;214;145546;-62
2023/09/11 15:51:46;;;;;;;47.30;37.90;;;;;;;28.15;41.90;98756.98;232684;214;139368;-60
2023/09/11 18:05:29;;;;;;;17.50;9.40;;;;;;;25.04;56.59;98775.16;231439;224;696312;-65
2023/09/11 18:10:34;;;;;;;17.00;10.90;;;;;;;24.88;57.44;98773.56;232917;217;136971;-62
2023/09/11 18:15:47;;;;;;;19.70;12.60;;;;;;;24.76;58.07;98774.23;232727;214;144357;-62
2023/09/11 18:20:53;;;;;;;16.70;10.60;;;;;;;24.63;58.49;98777.44;232684;215;138886;-62
2023/09/11 18:25:59;;;;;;;20.00;12.00;;;;;;;24.50;59.35;98780.05;232706;214;136598;-63
2023/09/11 18:31:04;;;;;;;23.30;11.50;;;;;;;24.40;60.09;98784.81;232594;214;144506;-63
2023/09/11 18:36:07;;;;;;;25.00;12.80;;;;;;;24.29;61.02;98785.70;232594;214;140130;-63
2023/09/11 18:41:12;;;;;;;24.60;13.20;;;;;;;24.18;60.77;98787.98;232778;214;138374;-63
2023/09/11 18:46:17;;;;;;;;;;;;;;;24.05;62.21;98792.95;232718;214;144328;-61
2023/09/11 18:51:22;;;;;;;26.90;16.70;;;;;;;23.97;62.24;98800.02;232727;214;139502;-65
2023/09/11 18:56:30;;;;;;;20.10;11.50;;;;;;;23.85;62.24;98805.61;232553;214;138056;-66
2023/09/11 19:01:34;;;;;;;21.40;12.00;;;;;;;23.67;62.91;98801.82;232617;214;145400;-64
2023/09/11 19:06:38;;;;;;;19.50;11.90;;;;;;;23.54;63.58;98801.55;232683;214;140020;-69
2023/09/11 19:11:47;;;;;;;24.60;11.50;;;;;;;23.40;64.10;98804.36;232607;214;137194;-63
2023/09/11 19:16:52;;;;;;;25.00;11.50;;;;;;;23.30;64.53;98802.60;232777;215;145711;-67
2023/09/11 19:21:56;;;;;;;21.20;12.90;;;;;;;23.26;64.72;98800.86;232676;214;138981;-67
2023/09/11 19:27:04;;;;;;;22.70;13.80;;;;;;;23.24;64.85;98797.54;232770;214;137957;-63
2023/09/11 19:32:09;;;;;;;18.40;12.80;;;;;;;23.19;65.21;98797.95;232685;214;147348;-66
2023/09/11 21:45:32;;;;;;;27.10;15.50;;;;;;;21.70;69.97;98794.60;231436;224;698742;-67
2023/09/11 21:50:39;;;;;;;29.60;17.20;;;;;;;21.64;70.12;98795.30;232398;219;137949;-69
2023/09/11 21:55:43;;;;;;;24.10;16.60;;;;;;;21.62;69.85;98799.36;232313;219;145251;-69
2023/09/11 22:00:48;;;;;;;25.90;17.70;;;;;;;21.58;70.14;98797.93;232275;219;138934;-65
2023/09/11 22:05:53;;;;;;;28.10;17.90;;;;;;;21.52;70.28;98795.55;232495;219;137985;-68
2023/09/11 22:10:59;;;;;;;33.10;17.00;;;;;;;21.44;70.41;98790.67;232352;219;143947;-66
2023/09/11 22:16:05;;;;;;;24.00;17.80;;;;;;;21.37;70.48;98791.80;232361;219;138683;-64
2023/09/11 22:21:09;;;;;;;28.90;16.70;;;;;;;21.29;70.78;98794.00;232800;215;137731;-66
2023/09/11 22:26:15;;;;;;;24.50;17.20;;;;;;;21.21;71.03;98796.74;232878;215;144813;-66
2023/09/11 22:31:20;;;;;;;27.00;16.90;;;;;;;21.18;70.98;98801.81;232756;215;138906;-65
2023/09/11 22:36:25;;;;;;;28.90;17.60;;;;;;;21.17;71.11;98798.67;232788;215;137357;-65
2023/09/11 22:41:31;;;;;;;24.70;17.30;;;;;;;21.11;71.41;98795.35;232945;216;147829;-66
2023/09/11 22:46:35;;;;;;;27.30;18.10;;;;;;;21.05;71.47;98789.23;232851;215;139983;-66
2023/09/11 22:51:40;;;;;;;26.20;16.90;;;;;;;20.96;71.69;98790.30;232820;215;138234;-65
2023/09/11 22:56:45;;;;;;;;;;;;;;;20.88;71.89;98788.70;232919;215;147776;-66
2023/09/11 23:01:50;;;;;;;23.30;15.70;;;;;;;20.80;72.07;98786.29;232861;215;140014;-66
2023/09/11 23:06:55;;;;;;;25.10;16.70;;;;;;;20.78;72.30;98789.46;232903;215;137664;-64
2023/09/11 23:11:58;;;;;;;29.30;17.70;;;;;;;20.76;72.34;98785.68;232997;215;146545;-67
2023/09/11 23:17:04;;;;;;;26.10;15.90;;;;;;;20.76;72.05;98789.45;232917;216;138966;-67
2023/09/11 23:22:07;;;;;;;28.90;17.90;;;;;;;20.72;72.14;98785.81;232996;215;137206;-65
2023/09/11 23:27:11;;;;;;;29.00;17.60;;;;;;;20.64;72.15;98787.21;232865;215;147029;-68
2023/09/11 23:32:16;;;;;;;25.40;17.20;;;;;;;20.54;72.49;98789.31;232556;214;138978;-68
2023/09/11 23:37:20;;;;;;;23.90;16.50;;;;;;;20.48;72.66;98786.30;232604;214;139460;-68
2023/09/11 23:42:24;;;;;;;27.50;17.50;;;;;;;20.45;72.65;98784.09;232654;214;146568;-68
2023/09/11 23:47:28;;;;;;;27.50;17.70;;;;;;;20.43;72.73;98786.88;232747;214;139302;-69
2023/09/11 23:52:34;;;;;;;24.30;17.80;;;;;;;20.39;72.72;98783.34;232604;214;137436;-64
2023/09/11 23:57:39;;;;;;;29.10;18.90;;;;;;;20.32;72.72;98782.05;232663;214;146466;-65
